sensor_id;sensor_type;location;lat;lon;timestamp;pressure;altitude;pressure_sealevel;temperature;humidity
10310;BME280;5200;43.236;27.986;2023-07-13T00:01:05;100107.09;;;22.70;100.00
10310;BME280;5200;43.236;27.986;2023-07-13T00:03:33;100130.53;;;22.81;100.00
10310;BME280;5200;43.236;27.986;2023-07-13T00:06:01;100102.41;;;22.58;100.00
10310;BME280;5200;43.236;27.986;2023-07-13T00:08:30;100117.84;;;22.63;100.00
10310;BME280;5200;43.236;27.986;2023-07-13T00:10:58;100113.91;;;22.66;100.00
10310;BME280;5200;43.236;27.986;2023-07-13T00:13:25;100138.81;;;22.79;100.00
10310;BME280;5200;43.236;27.986;2023-07-13T00:15:53;100139.41;;;22.82;100.00
10310;BME280;5200;43.236;27.986;2023-07-13T00:18:21;100127.50;;;22.71;100.00
10310;BME280;5200;43.236;27.986;2023-07-13T00:20:48;100116.78;;;22.64;100.00
10310;BME280;5200;43.236;27.986;2023-07-13T00:23:15;100105.72;;;22.54;100.00
10310;BME280;5200;43.236;27.986;2023-07-13T00:25:42;100112.69;;;22.62;100.00
10310;BME280;5200;43.236;27.986;2023-07-13T00:28:09;100122.56;;;22.68;100.00
10310;BME280;5200;43.236;27.986;2023-07-13T00:30:36;100119.06;;;22.67;100.00
10310;BME280;5200;43.236;27.986;2023-07-13T00:33:04;100088.59;;;22.55;100.00
10310;BME280;5200;43.236;27.986;2023-07-13T00:35:32;100104.44;;;22.63;100.00
10310;BME280;5200;43.236;27.986;2023-07-13T00:37:59;100099.69;;;22.65;100.00
10310;BME280;5200;43.236;27.986;2023-07-13T00:40:26;100105.66;;;22.67;100.00
10310;BME280;5200;43.236;27.986;2023-07-13T00:42:53;100071.06;;;22.52;100.00
10310;BME280;5200;43.236;27.986;2023-07-13T00:48:32;100082.31;;;22.74;100.00
10310;BME280;5200;43.236;27.986;2023-07-13T00:51:01;100080.66;;;22.73;100.00
10310;BME280;5200;43.236;27.986;2023-07-13T00:53:29;100082.91;;;22.76;100.00
10310;BME280;5200;43.236;27.986;2023-07-13T00:55:57;100066.91;;;22.63;100.00
10310;BME280;5200;43.236;27.986;2023-07-13T00:58:26;100081.25;;;22.75;100.00
10310;BME280;5200;43.236;27.986;2023-07-13T01:00:55;100072.22;;;22.70;100.00
10310;BME280;5200;43.236;27.986;2023-07-13T01:03:22;100082.47;;;22.79;100.00
10310;BME280;5200;43.236;27.986;2023-07-13T01:05:50;100075.84;;;22.82;100.00
10310;BME280;5200;43.236;27.986;2023-07-13T01:08:20;100045.81;;;22.67;100.00
10310;BME280;5200;43.236;27.986;2023-07-13T01:10:54;100047.25;;;22.69;100.00
10310;BME280;5200;43.236;27.986;2023-07-13T01:13:21;100075.38;;;22.92;100.00
10310;BME280;5200;43.236;27.986;2023-07-13T01:15:50;100065.91;;;22.89;100.00
10310;BME280;5200;43.236;27.986;2023-07-13T01:18:20;100071.06;;;22.91;100.00
10310;BME280;5200;43.236;27.986;2023-07-13T01:20:53;100069.03;;;22.86;100.00
10310;BME280;5200;43.236;27.986;2023-07-13T01:23:21;100055.22;;;22.83;100.00
10310;BME280;5200;43.236;27.986;2023-07-13T01:25:47;100038.78;;;22.72;100.00
10310;BME280;5200;43.236;27.986;2023-07-13T01:28:14;100064.28;;;22.88;100.00
10310;BME280;5200;43.236;27.986;2023-07-13T01:30:43;100058.06;;;22.88;100.00
10310;BME280;5200;43.236;27.986;2023-07-13T01:33:11;100061.34;;;22.90;100.00
10310;BME280;5200;43.236;27.986;2023-07-13T01:35:39;100053.09;;;22.91;100.00
10310;BME280;5200;43.236;27.986;2023-07-13T01:38:08;100042.56;;;22.90;100.00
10310;BME280;5200;43.236;27.986;2023-07-13T01:40:36;100037.03;;;22.85;100.00
10310;BME280;5200;43.236;27.986;2023-07-13T01:43:04;100048.53;;;22.98;100.00
10310;BME280;5200;43.236;27.986;2023-07-13T01:45:31;100044.41;;;22.96;100.00
10310;BME280;5200;43.236;27.986;2023-07-13T01:47:58;100040.66;;;22.97;100.00
10310;BME280;5200;43.236;27.986;2023-07-13T01:50:25;100022.97;;;22.89;100.00
10310;BME280;5200;43.236;27.986;2023-07-13T01:52:52;100034.09;;;22.93;100.00
10310;BME280;5200;43.236;27.986;2023-07-13T01:55:21;100039.03;;;23.03;100.00
10310;BME280;5200;43.236;27.986;2023-07-13T01:57:48;100044.38;;;23.03;100.00
10310;BME280;5200;43.236;27.986;2023-07-13T02:00:16;100048.91;;;23.02;100.00
10310;BME280;5200;43.236;27.986;2023-07-13T02:02:43;100045.66;;;23.00;100.00
10310;BME280;5200;43.236;27.986;2023-07-13T02:05:10;100026.47;;;22.90;100.00
10310;BME280;5200;43.236;27.986;2023-07-13T02:07:38;100044.78;;;22.99;100.00
10310;BME280;5200;43.236;27.986;2023-07-13T02:10:05;100026.94;;;22.87;100.00
10310;BME280;5200;43.236;27.986;2023-07-13T02:12:34;100043.97;;;22.99;100.00
10310;BME280;5200;43.236;27.986;2023-07-13T02:15:01;100013.75;;;22.78;100.00
10310;BME280;5200;43.236;27.986;2023-07-13T02:17:28;100052.22;;;22.97;100.00
10310;BME280;5200;43.236;27.986;2023-07-13T02:19:55;100037.00;;;22.91;100.00
10310;BME280;5200;43.236;27.986;2023-07-13T02:22:22;100043.97;;;22.99;100.00
10310;BME280;5200;43.236;27.986;2023-07-13T02:24:50;100043.16;;;22.98;100.00
10310;BME280;5200;43.236;27.986;2023-07-13T02:27:17;100022.38;;;22.87;100.00
10310;BME280;5200;43.236;27.986;2023-07-13T02:29:49;100046.47;;;22.94;100.00
10310;BME280;5200;43.236;27.986;2023-07-13T02:32:16;100035.81;;;22.80;100.00
10310;BME280;5200;43.236;27.986;2023-07-13T02:34:44;100034.16;;;22.86;100.00
10310;BME280;5200;43.236;27.986;2023-07-13T02:37:11;100037.03;;;22.85;100.00
10310;BME280;5200;43.236;27.986;2023-07-13T02:39:38;100017.94;;;22.74;100.00
10310;BME280;5200;43.236;27.986;2023-07-13T02:42:06;100039.72;;;22.85;100.00
10310;BME280;5200;43.236;27.986;2023-07-13T02:44:33;100044.47;;;22.83;100.00
10310;BME280;5200;43.236;27.986;2023-07-13T02:47:01;100040.59;;;22.78;100.00
10310;BME280;5200;43.236;27.986;2023-07-13T02:49:28;100036.28;;;22.77;100.00
10310;BME280;5200;43.236;27.986;2023-07-13T02:51:55;100016.97;;;22.62;100.00
10310;BME280;5200;43.236;27.986;2023-07-13T02:54:22;100051.31;;;22.78;100.00
10310;BME280;5200;43.236;27.986;2023-07-13T02:56:49;100018.63;;;22.63;100.00
10310;BME280;5200;43.236;27.986;2023-07-13T02:59:16;100034.66;;;22.76;100.00
10310;BME280;5200;43.236;27.986;2023-07-13T03:01:43;100026.00;;;22.74;100.00
10310;BME280;5200;43.236;27.986;2023-07-13T03:04:12;100042.81;;;22.88;100.00
10310;BME280;5200;43.236;27.986;2023-07-13T03:06:39;100040.66;;;22.97;100.00
10310;BME280;5200;43.236;27.986;2023-07-13T03:09:06;100029.09;;;23.03;100.00
10310;BME280;5200;43.236;27.986;2023-07-13T03:11:33;100037.72;;;23.12;100.00
10310;BME280;5200;43.236;27.986;2023-07-13T03:14:00;100010.47;;;23.08;100.00
10310;BME280;5200;43.236;27.986;2023-07-13T03:16:27;100031.28;;;23.38;100.00
10310;BME280;5200;43.236;27.986;2023-07-13T03:18:54;100018.53;;;23.70;100.00
10310;BME280;5200;43.236;27.986;2023-07-13T03:21:22;100001.91;;;24.17;100.00
10310;BME280;5200;43.236;27.986;2023-07-13T03:23:49;100018.50;;;24.74;100.00
10310;BME280;5200;43.236;27.986;2023-07-13T03:26:18;100036.16;;;25.36;100.00
10310;BME280;5200;43.236;27.986;2023-07-13T03:28:46;100032.25;;;25.79;100.00
10310;BME280;5200;43.236;27.986;2023-07-13T03:31:14;100031.34;;;26.25;100.00
10310;BME280;5200;43.236;27.986;2023-07-13T03:33:42;100014.44;;;26.59;100.00
10310;BME280;5200;43.236;27.986;2023-07-13T03:36:18;100037.28;;;27.02;100.00
10310;BME280;5200;43.236;27.986;2023-07-13T03:38:49;99999.16;;;27.15;100.00
10310;BME280;5200;43.236;27.986;2023-07-13T03:41:16;100033.53;;;27.36;100.00
10310;BME280;5200;43.236;27.986;2023-07-13T03:43:43;100029.41;;;27.51;100.00
10310;BME280;5200;43.236;27.986;2023-07-13T03:46:11;100023.09;;;28.01;100.00
10310;BME280;5200;43.236;27.986;2023-07-13T03:48:38;100021.25;;;28.34;100.00
10310;BME280;5200;43.236;27.986;2023-07-13T03:51:06;100024.00;;;28.93;100.00
10310;BME280;5200;43.236;27.986;2023-07-13T03:53:34;100022.69;;;29.33;100.00
10310;BME280;5200;43.236;27.986;2023-07-13T03:56:02;100027.31;;;29.80;100.00
10310;BME280;5200;43.236;27.986;2023-07-13T03:58:32;100010.63;;;30.14;100.00
10310;BME280;5200;43.236;27.986;2023-07-13T04:00:59;100020.25;;;30.63;100.00
10310;BME280;5200;43.236;27.986;2023-07-13T04:03:28;100024.88;;;30.98;100.00
10310;BME280;5200;43.236;27.986;2023-07-13T04:05:55;100011.81;;;31.31;100.00
10310;BME280;5200;43.236;27.986;2023-07-13T04:08:26;100025.38;;;31.56;100.00
10310;BME280;5200;43.236;27.986;2023-07-13T04:10:53;100016.09;;;31.57;100.00
10310;BME280;5200;43.236;27.986;2023-07-13T04:13:21;100021.81;;;31.51;100.00
10310;BME280;5200;43.236;27.986;2023-07-13T04:15:49;100021.81;;;31.56;100.00
10310;BME280;5200;43.236;27.986;2023-07-13T04:18:16;100020.34;;;31.84;95.80
10310;BME280;5200;43.236;27.986;2023-07-13T04:20:43;100021.94;;;32.00;95.04
10310;BME280;5200;43.236;27.986;2023-07-13T04:23:10;100022.69;;;32.16;94.60
10310;BME280;5200;43.236;27.986;2023-07-13T04:25:37;100023.88;;;32.44;91.57
10310;BME280;5200;43.236;27.986;2023-07-13T04:28:04;100026.47;;;32.20;89.73
10310;BME280;5200;43.236;27.986;2023-07-13T04:30:34;100025.44;;;32.11;89.92
10310;BME280;5200;43.236;27.986;2023-07-13T04:33:01;99998.78;;;32.03;89.42
10310;BME280;5200;43.236;27.986;2023-07-13T04:35:30;100029.38;;;32.34;89.13
10310;BME280;5200;43.236;27.986;2023-07-13T04:37:57;100018.94;;;32.52;87.23
10310;BME280;5200;43.236;27.986;2023-07-13T04:40:24;100029.03;;;32.46;85.67
10310;BME280;5200;43.236;27.986;2023-07-13T04:42:50;100034.66;;;32.65;86.45
10310;BME280;5200;43.236;27.986;2023-07-13T04:45:18;100030.56;;;32.97;84.62
10310;BME280;5200;43.236;27.986;2023-07-13T04:47:46;100029.81;;;33.25;81.43
10310;BME280;5200;43.236;27.986;2023-07-13T04:50:13;100014.31;;;33.45;79.65
10310;BME280;5200;43.236;27.986;2023-07-13T04:52:46;100029.38;;;33.66;79.01
10310;BME280;5200;43.236;27.986;2023-07-13T04:55:13;100021.50;;;33.84;78.09
10310;BME280;5200;43.236;27.986;2023-07-13T04:57:40;100020.84;;;33.73;77.23
10310;BME280;5200;43.236;27.986;2023-07-13T05:00:08;100034.16;;;33.51;78.09
10310;BME280;5200;43.236;27.986;2023-07-13T05:02:38;100030.91;;;33.48;78.27
10310;BME280;5200;43.236;27.986;2023-07-13T05:05:07;100031.06;;;33.62;76.63
10310;BME280;5200;43.236;27.986;2023-07-13T05:07:34;100031.13;;;33.57;75.58
10310;BME280;5200;43.236;27.986;2023-07-13T05:10:01;100024.53;;;33.58;74.00
10310;BME280;5200;43.236;27.986;2023-07-13T05:12:29;100026.19;;;33.59;73.45
10310;BME280;5200;43.236;27.986;2023-07-13T05:14:56;100024.31;;;33.79;72.92
10310;BME280;5200;43.236;27.986;2023-07-13T05:17:23;100028.91;;;34.02;71.44
10310;BME280;5200;43.236;27.986;2023-07-13T05:19:50;100032.94;;;33.86;69.18
10310;BME280;5200;43.236;27.986;2023-07-13T05:22:18;100032.38;;;33.89;68.70
10310;BME280;5200;43.236;27.986;2023-07-13T05:24:45;100030.47;;;33.89;68.68
10310;BME280;5200;43.236;27.986;2023-07-13T05:27:12;100038.47;;;33.81;69.13
10310;BME280;5200;43.236;27.986;2023-07-13T05:29:45;100028.00;;;33.88;68.08
10310;BME280;5200;43.236;27.986;2023-07-13T05:32:12;100022.63;;;33.83;66.73
10310;BME280;5200;43.236;27.986;2023-07-13T05:34:39;100015.91;;;33.75;68.19
10310;BME280;5200;43.236;27.986;2023-07-13T05:37:07;100033.09;;;33.76;68.06
10310;BME280;5200;43.236;27.986;2023-07-13T05:39:36;100031.56;;;33.64;68.41
10310;BME280;5200;43.236;27.986;2023-07-13T05:42:03;100030.00;;;33.58;69.09
10310;BME280;5200;43.236;27.986;2023-07-13T05:44:30;100027.25;;;33.63;68.17
10310;BME280;5200;43.236;27.986;2023-07-13T05:46:57;100031.41;;;33.80;68.27
10310;BME280;5200;43.236;27.986;2023-07-13T05:49:30;100033.94;;;33.95;68.36
10310;BME280;5200;43.236;27.986;2023-07-13T05:51:57;100022.63;;;33.83;68.92
10310;BME280;5200;43.236;27.986;2023-07-13T05:54:24;100019.53;;;33.65;70.40
10310;BME280;5200;43.236;27.986;2023-07-13T05:56:55;100036.41;;;33.73;69.35
10310;BME280;5200;43.236;27.986;2023-07-13T05:59:22;100040.47;;;33.46;69.83
10310;BME280;5200;43.236;27.986;2023-07-13T06:01:50;100035.72;;;33.33;70.95
10310;BME280;5200;43.236;27.986;2023-07-13T06:04:17;100044.75;;;33.57;70.94
10310;BME280;5200;43.236;27.986;2023-07-13T06:06:44;100036.97;;;33.69;70.39
10310;BME280;5200;43.236;27.986;2023-07-13T06:09:11;100031.97;;;33.77;70.38
10310;BME280;5200;43.236;27.986;2023-07-13T06:11:38;100039.63;;;33.75;70.16
10310;BME280;5200;43.236;27.986;2023-07-13T06:14:06;100037.56;;;33.66;70.43
10310;BME280;5200;43.236;27.986;2023-07-13T06:16:33;100032.28;;;33.46;70.38
10310;BME280;5200;43.236;27.986;2023-07-13T06:19:00;100035.19;;;33.31;71.14
10310;BME280;5200;43.236;27.986;2023-07-13T06:21:27;100039.25;;;33.33;71.83
10310;BME280;5200;43.236;27.986;2023-07-13T06:23:54;100035.34;;;33.39;72.10
10310;BME280;5200;43.236;27.986;2023-07-13T06:26:22;100040.19;;;33.47;70.70
10310;BME280;5200;43.236;27.986;2023-07-13T06:28:49;100040.41;;;33.27;71.06
10310;BME280;5200;43.236;27.986;2023-07-13T06:31:17;100036.00;;;32.97;73.52
10310;BME280;5200;43.236;27.986;2023-07-13T06:33:47;100040.38;;;32.98;72.70
10310;BME280;5200;43.236;27.986;2023-07-13T06:36:14;100043.66;;;32.95;73.93
10310;BME280;5200;43.236;27.986;2023-07-13T06:38:41;100040.31;;;33.08;74.63
10310;BME280;5200;43.236;27.986;2023-07-13T06:41:08;100038.16;;;33.34;72.82
10310;BME280;5200;43.236;27.986;2023-07-13T06:43:35;100034.97;;;33.51;71.91
10310;BME280;5200;43.236;27.986;2023-07-13T06:46:02;100023.72;;;33.34;71.86
10310;BME280;5200;43.236;27.986;2023-07-13T06:48:31;100036.28;;;33.54;71.68
10310;BME280;5200;43.236;27.986;2023-07-13T06:50:58;100040.34;;;33.32;73.96
10310;BME280;5200;43.236;27.986;2023-07-13T06:53:25;100027.72;;;32.78;76.82
10310;BME280;5200;43.236;27.986;2023-07-13T06:55:51;100025.88;;;32.29;80.67
10310;BME280;5200;43.236;27.986;2023-07-13T06:58:18;100012.06;;;32.15;80.34
10310;BME280;5200;43.236;27.986;2023-07-13T07:00:46;100015.25;;;32.32;79.34
10310;BME280;5200;43.236;27.986;2023-07-13T07:03:13;100028.75;;;31.93;81.18
10310;BME280;5200;43.236;27.986;2023-07-13T07:05:41;100037.09;;;32.17;80.62
10310;BME280;5200;43.236;27.986;2023-07-13T07:08:09;100031.66;;;32.22;80.05
10310;BME280;5200;43.236;27.986;2023-07-13T07:10:36;100021.09;;;32.55;78.84
10310;BME280;5200;43.236;27.986;2023-07-13T07:13:03;100025.84;;;32.73;77.97
10310;BME280;5200;43.236;27.986;2023-07-13T07:15:30;100026.03;;;32.53;79.23
10310;BME280;5200;43.236;27.986;2023-07-13T07:17:57;100028.38;;;32.20;80.22
10310;BME280;5200;43.236;27.986;2023-07-13T07:20:24;100016.88;;;32.28;80.31
10310;BME280;5200;43.236;27.986;2023-07-13T07:22:53;100014.22;;;32.23;80.06
10310;BME280;5200;43.236;27.986;2023-07-13T07:25:20;100020.09;;;32.35;79.73
10310;BME280;5200;43.236;27.986;2023-07-13T07:27:48;100024.47;;;32.76;78.22
10310;BME280;5200;43.236;27.986;2023-07-13T07:30:15;100020.66;;;32.77;77.05
10310;BME280;5200;43.236;27.986;2023-07-13T07:32:42;100017.34;;;32.51;77.40
10310;BME280;5200;43.236;27.986;2023-07-13T07:35:09;100006.50;;;32.35;79.14
10310;BME280;5200;43.236;27.986;2023-07-13T07:37:36;100019.13;;;32.66;76.61
10310;BME280;5200;43.236;27.986;2023-07-13T07:40:06;100028.94;;;32.96;76.04
10310;BME280;5200;43.236;27.986;2023-07-13T07:42:33;100032.72;;;33.05;76.03
10310;BME280;5200;43.236;27.986;2023-07-13T07:45:00;100017.84;;;33.21;74.82
10310;BME280;5200;43.236;27.986;2023-07-13T07:47:27;100022.59;;;33.35;74.59
10310;BME280;5200;43.236;27.986;2023-07-13T07:49:55;100032.91;;;33.67;73.58
10310;BME280;5200;43.236;27.986;2023-07-13T07:52:22;100024.66;;;33.72;73.13
10310;BME280;5200;43.236;27.986;2023-07-13T07:54:49;100025.88;;;33.08;75.21
10310;BME280;5200;43.236;27.986;2023-07-13T07:57:17;100040.06;;;33.34;74.80
10310;BME280;5200;43.236;27.986;2023-07-13T07:59:44;100033.88;;;33.28;75.04
10310;BME280;5200;43.236;27.986;2023-07-13T08:02:11;100039.72;;;33.16;75.38
10310;BME280;5200;43.236;27.986;2023-07-13T08:04:38;100043.63;;;33.05;75.98
10310;BME280;5200;43.236;27.986;2023-07-13T08:07:05;100038.88;;;33.16;75.61
10310;BME280;5200;43.236;27.986;2023-07-13T08:09:32;100032.00;;;33.23;74.91
10310;BME280;5200;43.236;27.986;2023-07-13T08:11:59;100012.28;;;33.02;75.58
10310;BME280;5200;43.236;27.986;2023-07-13T08:14:28;100030.53;;;33.07;75.09
10310;BME280;5200;43.236;27.986;2023-07-13T08:16:55;100031.34;;;33.32;74.74
10310;BME280;5200;43.236;27.986;2023-07-13T08:19:22;100029.16;;;33.34;74.25
10310;BME280;5200;43.236;27.986;2023-07-13T08:21:48;100034.41;;;33.25;73.68
10310;BME280;5200;43.236;27.986;2023-07-13T08:24:15;100037.97;;;33.25;73.24
10310;BME280;5200;43.236;27.986;2023-07-13T08:26:44;100038.19;;;33.29;73.32
10310;BME280;5200;43.236;27.986;2023-07-13T08:29:11;100033.03;;;33.27;72.47
10310;BME280;5200;43.236;27.986;2023-07-13T08:31:40;100031.34;;;33.32;72.32
10310;BME280;5200;43.236;27.986;2023-07-13T08:34:07;100033.56;;;33.30;70.33
10310;BME280;5200;43.236;27.986;2023-07-13T08:36:34;100030.66;;;33.21;70.48
10310;BME280;5200;43.236;27.986;2023-07-13T08:39:01;100021.97;;;33.19;71.03
10310;BME280;5200;43.236;27.986;2023-07-13T08:41:28;100031.41;;;32.97;72.45
10310;BME280;5200;43.236;27.986;2023-07-13T08:43:58;100030.72;;;32.81;72.42
10310;BME280;5200;43.236;27.986;2023-07-13T08:46:28;100026.47;;;32.65;73.65
10310;BME280;5200;43.236;27.986;2023-07-13T08:49:02;100031.47;;;32.53;74.19
10310;BME280;5200;43.236;27.986;2023-07-13T08:51:40;100033.44;;;32.37;73.88
10310;BME280;5200;43.236;27.986;2023-07-13T08:54:22;100036.41;;;32.46;71.71
10310;BME280;5200;43.236;27.986;2023-07-13T08:56:51;100028.81;;;32.37;72.67
10310;BME280;5200;43.236;27.986;2023-07-13T08:59:22;100030.59;;;32.08;73.35
10310;BME280;5200;43.236;27.986;2023-07-13T09:02:05;100011.03;;;32.11;71.45
10310;BME280;5200;43.236;27.986;2023-07-13T09:04:40;100025.69;;;32.64;69.16
10310;BME280;5200;43.236;27.986;2023-07-13T09:07:16;100035.69;;;33.03;66.38
10310;BME280;5200;43.236;27.986;2023-07-13T09:09:53;100024.50;;;33.34;64.48
10310;BME280;5200;43.236;27.986;2023-07-13T09:12:26;100034.94;;;33.56;62.82
10310;BME280;5200;43.236;27.986;2023-07-13T09:14:59;100029.75;;;33.79;61.83
10310;BME280;5200;43.236;27.986;2023-07-13T09:17:35;100019.31;;;33.86;58.89
10310;BME280;5200;43.236;27.986;2023-07-13T09:20:17;100012.00;;;33.81;58.81
10310;BME280;5200;43.236;27.986;2023-07-13T09:22:46;100018.91;;;33.74;58.77
10310;BME280;5200;43.236;27.986;2023-07-13T09:25:23;100029.91;;;33.68;59.59
10310;BME280;5200;43.236;27.986;2023-07-13T09:27:53;100033.78;;;33.62;58.21
10310;BME280;5200;43.236;27.986;2023-07-13T09:30:27;100034.16;;;33.51;59.80
10310;BME280;5200;43.236;27.986;2023-07-13T09:32:56;100033.94;;;33.47;59.51
10310;BME280;5200;43.236;27.986;2023-07-13T09:35:27;100016.63;;;33.33;60.54
10310;BME280;5200;43.236;27.986;2023-07-13T09:37:59;100031.97;;;33.77;60.33
10310;BME280;5200;43.236;27.986;2023-07-13T09:40:38;100026.66;;;34.09;58.29
10310;BME280;5200;43.236;27.986;2023-07-13T09:43:08;100028.41;;;34.00;56.85
10310;BME280;5200;43.236;27.986;2023-07-13T09:45:37;100029.84;;;33.74;57.02
10310;BME280;5200;43.236;27.986;2023-07-13T09:48:06;100021.28;;;33.56;57.31
10310;BME280;5200;43.236;27.986;2023-07-13T09:50:35;100018.97;;;33.44;56.99
10310;BME280;5200;43.236;27.986;2023-07-13T09:53:03;100003.16;;;33.41;57.46
10310;BME280;5200;43.236;27.986;2023-07-13T09:55:32;100017.81;;;33.75;57.79
10310;BME280;5200;43.236;27.986;2023-07-13T09:58:06;100018.16;;;33.92;57.67
10310;BME280;5200;43.236;27.986;2023-07-13T10:00:36;100000.53;;;33.60;60.96
10310;BME280;5200;43.236;27.986;2023-07-13T10:03:05;100006.88;;;33.26;60.73
10310;BME280;5200;43.236;27.986;2023-07-13T10:05:41;100012.59;;;32.96;62.90
10310;BME280;5200;43.236;27.986;2023-07-13T10:08:17;100011.44;;;33.02;62.23
10310;BME280;5200;43.236;27.986;2023-07-13T10:10:45;100006.66;;;33.47;60.75
10310;BME280;5200;43.236;27.986;2023-07-13T10:13:30;100016.13;;;33.79;58.88
10310;BME280;5200;43.236;27.986;2023-07-13T10:15:59;99999.22;;;34.01;58.81
10310;BME280;5200;43.236;27.986;2023-07-13T10:18:27;99996.53;;;33.96;55.80
10310;BME280;5200;43.236;27.986;2023-07-13T10:21:12;99998.38;;;34.00;56.15
10310;BME280;5200;43.236;27.986;2023-07-13T10:23:40;99990.09;;;34.05;56.76
10310;BME280;5200;43.236;27.986;2023-07-13T10:26:13;99991.31;;;34.37;57.23
10310;BME280;5200;43.236;27.986;2023-07-13T10:28:44;99992.78;;;34.48;56.83
10310;BME280;5200;43.236;27.986;2023-07-13T10:31:14;99970.34;;;34.51;57.31
10310;BME280;5200;43.236;27.986;2023-07-13T10:33:42;99984.13;;;34.79;57.20
10310;BME280;5200;43.236;27.986;2023-07-13T10:36:16;99972.91;;;34.94;56.41
10310;BME280;5200;43.236;27.986;2023-07-13T10:38:46;99969.69;;;35.06;56.12
10310;BME280;5200;43.236;27.986;2023-07-13T10:41:17;99977.41;;;35.04;52.53
10310;BME280;5200;43.236;27.986;2023-07-13T10:43:47;99975.81;;;35.17;52.64
10310;BME280;5200;43.236;27.986;2023-07-13T10:46:19;99974.91;;;35.35;52.38
10310;BME280;5200;43.236;27.986;2023-07-13T10:48:49;99971.78;;;35.42;51.73
10310;BME280;5200;43.236;27.986;2023-07-13T10:51:19;99968.72;;;35.44;51.60
10310;BME280;5200;43.236;27.986;2023-07-13T10:53:48;99967.91;;;35.15;51.56
10310;BME280;5200;43.236;27.986;2023-07-13T10:56:35;99973.19;;;35.12;51.80
10310;BME280;5200;43.236;27.986;2023-07-13T10:59:10;99971.72;;;35.01;50.62
10310;BME280;5200;43.236;27.986;2023-07-13T11:01:49;99961.47;;;35.06;50.26
10310;BME280;5200;43.236;27.986;2023-07-13T11:04:19;99968.84;;;34.92;50.78
10310;BME280;5200;43.236;27.986;2023-07-13T11:06:51;99963.81;;;34.99;51.93
10310;BME280;5200;43.236;27.986;2023-07-13T11:09:32;99972.69;;;34.58;52.66
10310;BME280;5200;43.236;27.986;2023-07-13T11:12:00;99978.72;;;34.41;53.66
10310;BME280;5200;43.236;27.986;2023-07-13T11:14:34;99966.06;;;34.45;54.14
10310;BME280;5200;43.236;27.986;2023-07-13T11:17:25;99966.03;;;34.31;53.27
10310;BME280;5200;43.236;27.986;2023-07-13T11:20:18;99976.56;;;34.38;54.24
10310;BME280;5200;43.236;27.986;2023-07-13T11:22:49;99984.84;;;34.14;52.08
10310;BME280;5200;43.236;27.986;2023-07-13T11:25:28;99964.38;;;33.93;53.95
10310;BME280;5200;43.236;27.986;2023-07-13T11:28:14;99977.66;;;33.99;54.53
10310;BME280;5200;43.236;27.986;2023-07-13T11:30:46;99967.03;;;33.98;54.90
10310;BME280;5200;43.236;27.986;2023-07-13T11:33:17;99982.16;;;33.90;55.74
10310;BME280;5200;43.236;27.986;2023-07-13T11:35:57;99968.88;;;34.02;54.26
10310;BME280;5200;43.236;27.986;2023-07-13T11:38:32;99971.16;;;33.95;52.60
10310;BME280;5200;43.236;27.986;2023-07-13T11:41:02;99967.34;;;33.96;52.04
10310;BME280;5200;43.236;27.986;2023-07-13T11:43:30;99973.25;;;34.03;53.00
10310;BME280;5200;43.236;27.986;2023-07-13T11:46:12;99969.41;;;34.04;53.80
10310;BME280;5200;43.236;27.986;2023-07-13T11:48:39;99971.69;;;33.97;53.83
10310;BME280;5200;43.236;27.986;2023-07-13T11:51:11;99968.22;;;33.92;54.61
10310;BME280;5200;43.236;27.986;2023-07-13T11:53:48;99962.81;;;34.05;55.57
10310;BME280;5200;43.236;27.986;2023-07-13T11:56:16;99955.16;;;34.07;55.36
10310;BME280;5200;43.236;27.986;2023-07-13T11:58:43;99960.69;;;33.83;56.75
10310;BME280;5200;43.236;27.986;2023-07-13T12:01:17;99968.78;;;33.69;58.39
10310;BME280;5200;43.236;27.986;2023-07-13T12:03:45;99967.78;;;33.60;58.02
10310;BME280;5200;43.236;27.986;2023-07-13T12:06:25;99965.00;;;33.65;58.10
10310;BME280;5200;43.236;27.986;2023-07-13T12:08:57;99959.78;;;33.69;58.07
10310;BME280;5200;43.236;27.986;2023-07-13T12:11:25;99963.03;;;33.47;58.58
10310;BME280;5200;43.236;27.986;2023-07-13T12:13:52;99955.16;;;33.21;59.81
10310;BME280;5200;43.236;27.986;2023-07-13T12:16:29;99955.66;;;32.94;62.20
10310;BME280;5200;43.236;27.986;2023-07-13T12:18:59;99958.78;;;32.82;63.72
10310;BME280;5200;43.236;27.986;2023-07-13T12:21:33;99952.19;;;32.89;63.14
10310;BME280;5200;43.236;27.986;2023-07-13T12:24:02;99951.88;;;32.90;63.00
10310;BME280;5200;43.236;27.986;2023-07-13T12:26:31;99949.78;;;32.82;63.30
10310;BME280;5200;43.236;27.986;2023-07-13T12:29:00;99946.88;;;32.73;63.98
10310;BME280;5200;43.236;27.986;2023-07-13T12:31:35;99939.28;;;32.70;64.57
10310;BME280;5200;43.236;27.986;2023-07-13T12:34:07;99943.88;;;32.75;63.40
10310;BME280;5200;43.236;27.986;2023-07-13T12:36:37;99943.19;;;32.59;63.13
10310;BME280;5200;43.236;27.986;2023-07-13T12:39:13;99931.47;;;32.58;63.10
10310;BME280;5200;43.236;27.986;2023-07-13T12:41:41;99931.56;;;32.43;63.65
10310;BME280;5200;43.236;27.986;2023-07-13T12:44:11;99922.91;;;32.36;63.95
10310;BME280;5200;43.236;27.986;2023-07-13T12:46:39;99919.59;;;32.44;64.01
10310;BME280;5200;43.236;27.986;2023-07-13T12:49:07;99907.41;;;32.36;64.12
10310;BME280;5200;43.236;27.986;2023-07-13T12:51:34;99921.25;;;32.40;63.74
10310;BME280;5200;43.236;27.986;2023-07-13T12:54:14;99920.25;;;32.31;64.21
10310;BME280;5200;43.236;27.986;2023-07-13T12:56:42;99921.72;;;32.18;65.72
10310;BME280;5200;43.236;27.986;2023-07-13T12:59:19;99913.00;;;32.16;65.58
10310;BME280;5200;43.236;27.986;2023-07-13T13:01:47;99912.53;;;32.09;65.75